createdAt,value
2018-12-11T00:02:55.658Z,4.60
2018-12-11T00:05:59.220Z,5.33
2018-12-11T00:09:02.880Z,3.73
2018-12-11T00:12:06.329Z,3.73
2018-12-11T00:15:09.901Z,4.37
2018-12-11T00:18:13.430Z,4.37
2018-12-11T00:21:16.947Z,4.93
2018-12-11T00:24:20.446Z,4.70
2018-12-11T00:27:24.063Z,4.37
2018-12-11T00:30:27.651Z,5.40
2018-12-11T00:33:31.145Z,4.43
2018-12-11T00:36:34.583Z,5.97
2018-12-11T00:39:38.157Z,5.73
2018-12-11T00:42:41.762Z,5.53
2018-12-11T00:45:45.374Z,5.10
2018-12-11T00:48:48.976Z,7.80
2018-12-11T00:51:52.497Z,3.20
2018-12-11T00:54:56.073Z,4.27
2018-12-11T00:57:59.484Z,4.40
2018-12-11T01:01:02.986Z,3.40
2018-12-11T01:04:06.580Z,6.87
2018-12-11T01:07:10.090Z,5.97
2018-12-11T01:10:13.572Z,3.70
2018-12-11T01:13:17.113Z,4.37
2018-12-11T01:16:20.705Z,7.17
2018-12-11T01:19:24.204Z,4.90
2018-12-11T01:22:27.602Z,5.60
2018-12-11T01:25:31.101Z,4.63
2018-12-11T01:28:34.602Z,3.40
2018-12-11T01:31:38.100Z,6.37
2018-12-11T01:34:41.600Z,4.27
2018-12-11T01:37:45.009Z,8.33
2018-12-11T01:40:48.623Z,3.87
2018-12-11T01:43:52.118Z,4.67
2018-12-11T01:46:55.848Z,3.47
2018-12-11T01:49:59.332Z,9.37
2018-12-11T01:53:02.833Z,3.90
2018-12-11T01:56:06.274Z,6.00
2018-12-11T01:59:09.736Z,3.80
2018-12-11T02:02:13.247Z,4.50
2018-12-11T02:05:16.754Z,4.33
2018-12-11T02:08:20.151Z,4.80
2018-12-11T02:11:23.649Z,5.87
2018-12-11T02:14:27.150Z,6.63
2018-12-11T02:17:30.554Z,4.43
2018-12-11T02:20:34.053Z,5.17
2018-12-11T02:23:37.576Z,7.53
2018-12-11T02:26:41.151Z,5.33
2018-12-11T02:29:44.581Z,5.07
2018-12-11T02:32:48.064Z,5.60
2018-12-11T02:35:51.642Z,4.73
2018-12-11T02:38:55.121Z,3.63
2018-12-11T02:41:58.681Z,4.67
2018-12-11T02:45:02.166Z,6.20
2018-12-11T02:48:05.651Z,5.40
2018-12-11T02:51:09.111Z,5.53
2018-12-11T02:54:12.677Z,6.20
2018-12-11T02:57:16.064Z,3.50
2018-12-11T03:00:19.508Z,5.93
2018-12-11T03:03:23.005Z,7.00
2018-12-11T03:06:26.488Z,3.43
2018-12-11T03:09:30.013Z,3.47
2018-12-11T03:12:33.579Z,7.60
2018-12-11T03:15:37.080Z,5.97
2018-12-11T03:18:40.562Z,6.97
2018-12-11T03:21:44.097Z,4.77
2018-12-11T03:24:47.578Z,4.70
2018-12-11T03:27:51.094Z,6.63
2018-12-11T03:30:54.598Z,8.03
2018-12-11T03:33:58.113Z,6.30
2018-12-11T03:37:01.513Z,6.83
2018-12-11T03:40:05.563Z,4.93
2018-12-11T03:43:09.131Z,7.10
2018-12-11T03:46:12.556Z,6.70
2018-12-11T03:49:16.139Z,6.93
2018-12-11T03:52:21.709Z,5.37
2018-12-11T03:55:23.168Z,6.60
2018-12-11T03:58:26.633Z,6.10
2018-12-11T04:01:30.117Z,5.40
2018-12-11T04:04:33.652Z,4.50
2018-12-11T04:07:37.206Z,6.87
2018-12-11T04:10:40.753Z,7.33
2018-12-11T04:13:44.149Z,5.87
2018-12-11T04:16:47.653Z,8.27
2018-12-11T04:19:51.188Z,7.23
2018-12-11T04:22:54.645Z,6.00
2018-12-11T04:25:58.054Z,6.83
2018-12-11T04:29:01.540Z,4.60
2018-12-11T04:32:05.084Z,5.30
2018-12-11T04:35:08.656Z,5.03
2018-12-11T04:38:12.248Z,9.93
2018-12-11T04:41:15.658Z,6.50
2018-12-11T04:44:20.141Z,7.47
2018-12-11T04:47:23.492Z,3.37
2018-12-11T04:50:26.906Z,7.07
2018-12-11T04:53:30.287Z,3.77
2018-12-11T04:56:33.891Z,6.13
2018-12-11T04:59:37.343Z,4.90
2018-12-11T05:02:40.831Z,6.33
2018-12-11T05:05:44.302Z,4.70
2018-12-11T05:08:47.943Z,6.33
2018-12-11T05:11:51.421Z,5.83
2018-12-11T05:14:54.971Z,10.03
2018-12-11T05:17:58.380Z,6.93
2018-12-11T05:21:01.916Z,7.97
2018-12-11T05:24:05.497Z,6.57
2018-12-11T05:27:09.154Z,5.90
2018-12-11T05:30:12.755Z,7.50
2018-12-11T05:33:16.305Z,6.20
2018-12-11T05:36:19.756Z,7.30
2018-12-11T05:39:23.223Z,6.47
2018-12-11T05:42:26.766Z,6.97
2018-12-11T05:45:31.331Z,3.37
2018-12-11T05:48:34.747Z,9.30
2018-12-11T05:51:38.382Z,4.67
2018-12-11T05:54:41.974Z,6.73
2018-12-11T05:57:45.411Z,7.53
2018-12-11T06:00:48.894Z,7.63
2018-12-11T06:03:53.467Z,11.47
2018-12-11T06:06:57.111Z,7.37
2018-12-11T06:10:00.644Z,7.83
2018-12-11T06:13:04.207Z,8.00
2018-12-11T06:16:07.829Z,6.73
2018-12-11T06:19:11.331Z,6.80
2018-12-11T06:22:28.228Z,12.37
2018-12-11T06:25:31.779Z,8.53
2018-12-11T06:28:36.255Z,6.10
2018-12-11T06:31:38.680Z,5.00
2018-12-11T06:34:43.257Z,7.53
2018-12-11T06:37:47.247Z,7.60
2018-12-11T06:40:51.489Z,7.53
2018-12-11T06:43:57.032Z,10.23
2018-12-11T06:47:00.453Z,5.70
2018-12-11T06:50:04.646Z,7.87
2018-12-11T06:53:08.161Z,7.97
2018-12-11T06:56:11.557Z,6.97
2018-12-11T06:59:14.908Z,5.97
2018-12-11T07:02:18.322Z,3.50
2018-12-11T07:05:21.775Z,10.47
2018-12-11T07:08:25.189Z,6.53
2018-12-11T07:11:28.888Z,5.37
2018-12-11T07:14:32.478Z,10.30
2018-12-11T07:17:35.805Z,14.07
2018-12-11T07:20:39.423Z,8.43
2018-12-11T07:23:42.950Z,5.77
2018-12-11T07:26:46.395Z,6.67
2018-12-11T07:29:49.783Z,6.53
2018-12-11T07:32:53.199Z,6.53
2018-12-11T07:35:56.573Z,7.03
2018-12-11T07:38:59.933Z,10.33
2018-12-11T07:42:04.553Z,8.33
2018-12-11T07:45:08.233Z,12.03
2018-12-11T07:48:11.571Z,7.50
2018-12-11T07:51:15.038Z,6.47
2018-12-11T07:54:18.531Z,11.70
2018-12-11T07:57:22.034Z,12.23
2018-12-11T08:00:25.619Z,7.50
2018-12-11T08:03:29.024Z,9.93
2018-12-11T08:06:32.413Z,7.03
2018-12-11T08:09:35.945Z,6.60
2018-12-11T08:12:39.423Z,8.10
2018-12-11T08:15:42.845Z,9.87
2018-12-11T08:18:46.250Z,8.77
2018-12-11T08:21:49.646Z,11.80
2018-12-11T08:24:52.983Z,6.20
2018-12-11T08:27:56.461Z,9.13
2018-12-11T08:30:59.783Z,12.50
2018-12-11T08:34:03.263Z,7.47
2018-12-11T08:37:06.604Z,8.20
2018-12-11T08:40:09.986Z,6.43
2018-12-11T08:43:13.852Z,6.63
2018-12-11T08:46:17.269Z,11.13
2018-12-11T08:49:20.598Z,6.97
2018-12-11T08:52:24.087Z,5.93
2018-12-11T08:55:27.770Z,7.90
2018-12-11T08:58:31.156Z,8.63
2018-12-11T09:01:34.585Z,6.63
2018-12-11T09:04:38.081Z,7.10
2018-12-11T09:07:41.578Z,5.90
2018-12-11T09:10:44.967Z,8.27
2018-12-11T09:13:48.363Z,10.90
2018-12-11T09:16:51.801Z,7.93
2018-12-11T09:19:56.299Z,10.33
2018-12-11T09:22:59.714Z,9.00
2018-12-11T09:26:03.519Z,9.80
2018-12-11T09:29:06.896Z,7.73
2018-12-11T09:32:10.451Z,15.20
2018-12-11T09:35:13.924Z,7.83
2018-12-11T09:38:17.336Z,11.67
2018-12-11T09:41:20.687Z,10.40
2018-12-11T09:44:24.064Z,6.13
2018-12-11T09:47:27.502Z,7.77
2018-12-11T09:50:30.892Z,10.33
2018-12-11T09:53:34.294Z,6.63
2018-12-11T09:56:37.912Z,12.63
2018-12-11T09:59:41.323Z,9.53
2018-12-11T10:02:44.773Z,9.37
2018-12-11T10:05:48.345Z,7.47
2018-12-11T10:08:51.770Z,7.47
2018-12-11T10:11:55.272Z,7.00
2018-12-11T10:14:58.775Z,5.57
2018-12-11T10:18:02.342Z,11.13
2018-12-11T10:21:05.798Z,7.03
2018-12-11T10:24:09.411Z,8.03
2018-12-11T10:27:13.952Z,9.83
2018-12-11T10:30:17.383Z,6.77
2018-12-11T10:33:20.955Z,9.63
2018-12-11T10:36:24.367Z,7.47
2018-12-11T10:39:27.758Z,14.57
2018-12-11T10:42:31.172Z,8.10
2018-12-11T10:45:34.562Z,8.97
2018-12-11T10:48:37.952Z,5.40
2018-12-11T10:51:41.466Z,7.30
2018-12-11T10:54:44.900Z,9.43
2018-12-11T10:57:48.349Z,6.43
2018-12-11T11:00:57.229Z,7.23
2018-12-11T11:04:00.676Z,6.07
2018-12-11T11:07:04.134Z,7.00
2018-12-11T11:10:07.642Z,8.97
2018-12-11T11:13:11.168Z,6.33
2018-12-11T11:16:15.803Z,8.93
2018-12-11T11:19:19.563Z,10.93
2018-12-11T11:22:23.088Z,9.00
2018-12-11T11:25:27.096Z,8.40
2018-12-11T11:28:30.675Z,7.43
2018-12-11T11:31:34.173Z,6.03
2018-12-11T11:34:40.653Z,9.47
2018-12-11T11:37:46.423Z,7.90
2018-12-11T11:40:49.791Z,11.37
2018-12-11T11:43:54.368Z,8.10
2018-12-11T11:46:57.854Z,13.83
2018-12-11T11:50:01.274Z,13.70
2018-12-11T11:53:04.724Z,6.73
2018-12-11T11:56:08.227Z,7.47
2018-12-11T11:59:11.695Z,9.90
2018-12-11T12:02:15.245Z,7.07
2018-12-11T12:05:18.707Z,9.47
2018-12-11T12:08:22.137Z,9.67
2018-12-11T12:11:25.641Z,9.27
2018-12-11T12:14:29.123Z,10.37
2018-12-11T12:17:32.865Z,8.83
2018-12-11T12:20:36.461Z,8.27
2018-12-11T12:23:39.943Z,9.37
2018-12-11T12:26:43.566Z,8.53
2018-12-11T12:29:47.451Z,10.60
2018-12-11T12:32:50.971Z,9.53
2018-12-11T12:35:54.471Z,8.07
2018-12-11T12:38:57.983Z,11.90
2018-12-11T12:42:01.624Z,8.97
2018-12-11T12:45:05.530Z,15.63
2018-12-11T12:48:11.203Z,11.13
2018-12-11T12:51:14.725Z,11.73
2018-12-11T12:54:21.678Z,13.63
2018-12-11T12:57:25.280Z,9.03
2018-12-11T13:00:29.284Z,11.73
2018-12-11T13:03:32.806Z,7.20
2018-12-11T13:06:37.646Z,10.70
2018-12-11T13:09:41.108Z,8.20
2018-12-11T13:12:44.706Z,9.27
2018-12-11T13:15:48.201Z,12.17
2018-12-11T13:18:52.023Z,10.47
2018-12-11T13:21:55.610Z,10.23
2018-12-11T13:24:59.020Z,10.93
2018-12-11T13:28:02.548Z,13.17
2018-12-11T13:31:06.065Z,15.03
2018-12-11T13:34:09.506Z,13.00
2018-12-11T13:37:13.160Z,12.20
2018-12-11T13:40:16.820Z,12.17
2018-12-11T13:43:21.306Z,12.00
2018-12-11T13:46:24.891Z,12.87
2018-12-11T13:49:28.490Z,12.07
2018-12-11T13:52:31.891Z,10.63
2018-12-11T13:55:35.408Z,11.07
2018-12-11T13:58:39.017Z,11.13
2018-12-11T14:01:42.635Z,14.27
2018-12-11T14:04:46.136Z,14.40
2018-12-11T14:07:49.648Z,13.60
2018-12-11T14:10:53.216Z,15.17
2018-12-11T14:13:56.660Z,13.97
2018-12-11T14:17:00.235Z,11.07
2018-12-11T14:20:04.065Z,12.87
2018-12-11T14:23:07.684Z,11.00
2018-12-11T14:26:11.311Z,15.73
2018-12-11T14:29:14.884Z,14.37
2018-12-11T14:32:18.555Z,12.57
2018-12-11T14:35:22.090Z,13.27
2018-12-11T14:38:25.592Z,16.87
2018-12-11T14:41:29.206Z,12.90
2018-12-11T14:44:32.997Z,16.83
2018-12-11T14:47:36.575Z,13.73
2018-12-11T14:50:40.214Z,13.83
2018-12-11T14:53:43.805Z,13.07
2018-12-11T14:56:47.314Z,16.30
2018-12-11T14:59:50.828Z,13.57
2018-12-11T15:02:54.462Z,17.73
2018-12-11T15:05:59.090Z,20.73
2018-12-11T15:09:07.889Z,18.97
2018-12-11T15:12:11.792Z,15.23
2018-12-11T15:15:15.351Z,14.50
2018-12-11T15:18:19.061Z,12.93
2018-12-11T15:21:22.744Z,19.23
2018-12-11T15:24:27.115Z,15.80
2018-12-11T15:27:31.669Z,15.47
2018-12-11T15:30:35.819Z,19.93
2018-12-11T15:33:39.358Z,13.73
2018-12-11T15:36:42.884Z,18.37
2018-12-11T15:39:46.631Z,19.50
2018-12-11T15:42:50.194Z,18.77
2018-12-11T15:45:53.926Z,17.57
2018-12-11T15:48:57.551Z,15.03
2018-12-11T15:52:01.154Z,12.40
2018-12-11T15:55:05.305Z,15.60
2018-12-11T15:58:09.113Z,15.60
2018-12-11T16:01:12.594Z,14.07
2018-12-11T16:04:16.094Z,14.03
2018-12-11T16:07:19.929Z,16.40
2018-12-11T16:10:23.395Z,16.67
2018-12-11T16:13:26.918Z,17.63
2018-12-11T16:16:30.383Z,15.10
2018-12-11T16:19:33.979Z,14.30
2018-12-11T16:22:37.468Z,13.00
2018-12-11T16:25:41.008Z,15.23
2018-12-11T16:28:44.597Z,13.57
2018-12-11T16:31:48.127Z,14.07
2018-12-11T16:34:51.867Z,12.67
2018-12-11T16:37:55.288Z,15.50
2018-12-11T16:40:58.895Z,16.43
2018-12-11T16:44:03.581Z,12.70
2018-12-11T16:47:07.470Z,13.47
2018-12-11T16:50:11.091Z,13.07
2018-12-11T16:53:14.901Z,10.40
2018-12-11T16:56:18.634Z,9.23
2018-12-11T16:59:22.036Z,8.40
2018-12-11T17:02:25.495Z,11.60
2018-12-11T17:05:31.292Z,7.17
2018-12-11T17:08:34.785Z,7.30
2018-12-11T17:11:38.508Z,11.10
2018-12-11T17:14:42.417Z,11.13
2018-12-11T17:17:47.065Z,12.23
2018-12-11T17:20:50.704Z,12.87
2018-12-11T17:23:54.175Z,14.77
2018-12-11T17:26:57.751Z,13.57
2018-12-11T17:30:01.622Z,18.07
2018-12-11T17:33:05.329Z,19.77
2018-12-11T17:36:10.367Z,18.30
2018-12-11T17:39:15.206Z,19.70
2018-12-11T17:42:19.114Z,16.60
2018-12-11T17:45:22.970Z,16.90
2018-12-11T17:48:27.833Z,17.90
2018-12-11T17:51:31.701Z,14.47
2018-12-11T17:54:35.484Z,19.17
2018-12-11T17:57:39.047Z,19.63
2018-12-11T18:00:42.888Z,16.50
2018-12-11T18:03:46.513Z,19.40
2018-12-11T18:06:50.198Z,17.27
2018-12-11T18:09:53.739Z,18.60
2018-12-11T18:12:59.630Z,16.50
2018-12-11T18:16:03.442Z,22.23
2018-12-11T18:19:08.060Z,19.83
2018-12-11T18:22:12.202Z,17.97
2018-12-11T18:25:15.982Z,21.63
2018-12-11T18:28:19.758Z,19.10
2018-12-11T18:31:23.558Z,35.70
2018-12-11T18:34:27.306Z,20.10
2018-12-11T18:37:33.932Z,17.87
2018-12-11T18:40:37.678Z,17.83
2018-12-11T18:43:41.600Z,20.80
2018-12-11T18:46:45.263Z,20.40
2018-12-11T18:49:48.916Z,20.90
2018-12-11T18:52:52.570Z,20.93
2018-12-11T18:55:56.446Z,18.13
2018-12-11T18:59:00.235Z,14.47
2018-12-11T19:02:03.945Z,21.33
2018-12-11T19:05:07.770Z,20.20
2018-12-11T19:08:11.361Z,18.73
2018-12-11T19:11:15.018Z,16.60
2018-12-11T19:14:18.718Z,21.03
2018-12-11T19:17:22.328Z,22.20
2018-12-11T19:20:26.205Z,21.03
2018-12-11T19:23:41.638Z,18.40
2018-12-11T19:26:45.553Z,14.63
2018-12-11T19:29:48.975Z,18.90
2018-12-11T19:32:52.581Z,19.80
2018-12-11T19:35:56.483Z,19.37
2018-12-11T19:39:00.005Z,20.50
2018-12-11T19:42:04.674Z,21.17
2018-12-11T19:45:08.406Z,18.03
2018-12-11T19:48:12.299Z,18.50
2018-12-11T19:51:16.162Z,18.60
2018-12-11T19:54:19.677Z,18.73
2018-12-11T19:57:23.684Z,18.17
2018-12-11T20:00:27.270Z,18.07
2018-12-11T20:03:31.102Z,20.80
2018-12-11T20:06:34.711Z,21.17
2018-12-11T20:09:42.417Z,16.97
2018-12-11T20:12:46.067Z,16.33
2018-12-11T20:15:50.237Z,17.47
2018-12-11T20:18:53.875Z,21.27
2018-12-11T20:21:57.498Z,21.23
2018-12-11T20:25:01.188Z,14.43
2018-12-11T20:28:05.103Z,17.33
2018-12-11T20:31:08.868Z,19.50
2018-12-11T20:34:12.498Z,18.63
2018-12-11T20:37:16.249Z,18.30
2018-12-11T20:40:19.837Z,16.60
2018-12-11T20:43:23.435Z,22.57
2018-12-11T20:46:27.018Z,16.57
2018-12-11T20:49:31.524Z,16.83
2018-12-11T20:52:35.080Z,16.07
2018-12-11T20:55:38.691Z,16.67
2018-12-11T20:58:42.312Z,21.50
2018-12-11T21:01:45.852Z,20.37
2018-12-11T21:04:49.342Z,17.23
2018-12-11T21:07:53.024Z,21.70
2018-12-11T21:10:56.582Z,19.83
2018-12-11T21:14:00.230Z,20.37
2018-12-11T21:17:04.080Z,16.30
2018-12-11T21:20:08.337Z,18.30
2018-12-11T21:23:12.032Z,19.87
2018-12-11T21:26:15.582Z,19.90
2018-12-11T21:29:19.054Z,19.70
2018-12-11T21:32:22.887Z,17.40
2018-12-11T21:35:26.430Z,20.13
2018-12-11T21:38:31.244Z,17.50
2018-12-11T21:41:34.971Z,19.27
2018-12-11T21:44:38.371Z,21.33
2018-12-11T21:47:41.868Z,22.53
2018-12-11T21:50:46.499Z,23.80
2018-12-11T21:53:50.029Z,17.60
2018-12-11T21:56:53.611Z,22.73
2018-12-11T21:59:57.067Z,21.33
2018-12-11T22:03:01.658Z,19.10
2018-12-11T22:06:05.421Z,20.50
2018-12-11T22:09:08.926Z,20.50
2018-12-11T22:12:12.798Z,19.90
2018-12-11T22:15:17.418Z,20.57
2018-12-11T22:18:20.935Z,24.97
2018-12-11T22:21:24.476Z,19.20
2018-12-11T22:24:28.005Z,18.37
2018-12-11T22:27:31.506Z,19.93
2018-12-11T22:30:35.040Z,18.17
2018-12-11T22:33:38.698Z,21.60
2018-12-11T22:36:42.219Z,20.63
2018-12-11T22:39:45.878Z,22.93
2018-12-11T22:42:49.769Z,19.27
2018-12-11T22:45:53.613Z,20.50
2018-12-11T22:48:58.340Z,18.23
2018-12-11T22:52:02.154Z,21.67
2018-12-11T22:55:05.922Z,22.07
2018-12-11T22:58:09.661Z,19.00
2018-12-11T23:01:14.783Z,24.27
2018-12-11T23:04:18.454Z,20.57
2018-12-11T23:07:22.131Z,21.43
2018-12-11T23:10:25.838Z,19.83
2018-12-11T23:13:29.505Z,18.63
2018-12-11T23:16:33.360Z,21.23
2018-12-11T23:19:38.093Z,21.97
2018-12-11T23:22:43.803Z,21.17
2018-12-11T23:25:50.841Z,22.13
2018-12-11T23:28:54.648Z,22.97
2018-12-11T23:31:58.202Z,19.23
2018-12-11T23:35:01.895Z,19.23
2018-12-11T23:38:05.615Z,21.27
2018-12-11T23:41:09.220Z,19.93
2018-12-11T23:44:12.915Z,22.67
2018-12-11T23:47:16.730Z,18.07
2018-12-11T23:50:20.394Z,22.87
2018-12-11T23:53:23.962Z,21.63
2018-12-11T23:56:27.650Z,20.90
2018-12-11T23:59:31.171Z,20.77
